Dove Creek, Colorado
Current Conditions -  °F | °C
As of 10:15 AM on Sunday 21 Dec 2014 (Local Time) from KBDG Reporting Station
Scattered Clouds Scattered Clouds  
Wind Chill: 27°   Ceiling: Unl
Heat Index: 32°   Visibility: 10mi
Dew Point: 31°   Wind: 5mph
Humidity: 96%   Direction: 70°ENE
Pressure: 30.15"   Gusts: NA
Location:  37.77°N, 108.91°W
Report Text: KBDG 211715Z AUTO 07004KT 10SM SCT004 SCT100 00/00 A3015 RMK AO1 T00001005
Loading
Personal Weather Stations






























Interactive Weather Map New forecast layout! Learn more

10-Day Weather Forecast

Advertisements
Track Severe Weather on mobile